Time;durP1;ratioP1;P1;durP2;ratioP2;P2;SDS_P1;SDS_P2;PMS_P1;PMS_P2;Temp;Humidity;BMP_temperature;BMP_pressure;BME280_temperature;BME280_humidity;BME280_pressure;Samples;Min_cycle;Max_cycle;Signal;HPM_P1;HPM_P2
2023/01/04 00:02:46;;;;;;;43.48;19.25;;;;;;;1.21;100.00;100158.91;2188650;81;21044;-58
2023/01/04 00:05:47;;;;;;;46.35;19.85;;;;;;;1.17;100.00;100158.47;2189013;81;21044;-58
2023/01/04 00:08:48;;;;;;;86.95;31.33;;;;;;;1.14;100.00;100158.92;2188617;81;21032;-59
2023/01/04 00:11:50;;;;;;;64.20;26.12;;;;;;;1.11;100.00;100157.64;2188630;81;21076;-58
2023/01/04 00:14:52;;;;;;;58.92;23.87;;;;;;;1.18;100.00;100159.36;2178582;81;21147;-58
2023/01/04 00:17:53;;;;;;;54.00;23.35;;;;;;;1.25;100.00;100161.06;2172301;81;21475;-59
2023/01/04 00:20:54;;;;;;;46.75;20.40;;;;;;;1.24;100.00;100156.75;2172049;81;21045;-58
2023/01/04 00:23:56;;;;;;;43.00;18.17;;;;;;;1.23;100.00;100160.19;2172001;82;21124;-58
2023/01/04 00:26:57;;;;;;;41.42;18.57;;;;;;;1.31;100.00;100163.63;2172201;81;21171;-59
2023/01/04 00:29:59;;;;;;;43.30;19.00;;;;;;;1.35;100.00;100161.88;2172219;82;20946;-59
2023/01/04 00:33:00;;;;;;;44.08;19.00;;;;;;;1.47;100.00;100157.99;2172365;81;21024;-58
2023/01/04 00:36:02;;;;;;;42.78;19.30;;;;;;;1.42;100.00;100166.63;2172189;81;21000;-58
2023/01/04 00:42:06;;;;;;;45.00;19.25;;;;;;;2.04;100.00;100166.84;2162105;82;21048;-59
2023/01/04 00:45:08;;;;;;;39.88;16.20;;;;;;;2.00;100.00;100161.70;2172335;81;21041;-58
2023/01/04 00:48:09;;;;;;;39.90;16.80;;;;;;;2.24;100.00;100161.98;2172352;81;21539;-58
2023/01/04 00:51:11;;;;;;;37.20;16.07;;;;;;;2.08;100.00;100168.97;2172559;82;21063;-58
2023/01/04 00:54:12;;;;;;;42.00;17.05;;;;;;;2.06;100.00;100160.37;2172314;81;20988;-58
2023/01/04 00:57:13;;;;;;;42.62;18.25;;;;;;;2.24;100.00;100160.69;2172449;81;21041;-58
2023/01/04 01:00:15;;;;;;;38.05;16.55;;;;;;;2.23;100.00;100161.13;2172321;82;21016;-59
2023/01/04 01:03:16;;;;;;;42.25;18.65;;;;;;;2.18;100.00;100162.87;2172579;81;20997;-58
2023/01/04 01:06:18;;;;;;;48.35;22.30;;;;;;;2.32;100.00;100165.40;2172286;81;20997;-59
2023/01/04 01:09:21;;;;;;;45.55;19.80;;;;;;;2.20;100.00;100170.66;2172157;81;21598;-58
2023/01/04 01:12:23;;;;;;;49.75;22.58;;;;;;;2.13;100.00;100160.77;2172097;82;21607;-58
2023/01/04 01:15:24;;;;;;;42.95;19.60;;;;;;;2.17;100.00;100168.94;2183449;81;21012;-58
2023/01/04 01:18:26;;;;;;;43.68;19.92;;;;;;;2.27;100.00;100159.41;2188785;81;21027;-59
2023/01/04 01:21:28;;;;;;;44.93;19.80;;;;;;;2.36;100.00;100163.66;2188897;81;21047;-59
2023/01/04 01:24:30;;;;;;;;;;;;;;;2.45;100.00;100162.75;2191468;81;21543;-58
2023/01/04 01:27:31;;;;;;;37.80;15.45;;;;;;;2.42;100.00;100161.88;2188722;81;20104;-58
2023/01/04 01:30:32;;;;;;;37.58;16.00;;;;;;;2.26;100.00;100164.15;2188719;81;21011;-59
2023/01/04 01:33:34;;;;;;;33.70;12.85;;;;;;;2.36;100.00;100164.96;2188974;81;20980;-59
2023/01/04 01:36:35;;;;;;;34.83;13.20;;;;;;;2.47;100.00;100167.47;2188551;81;21016;-58
2023/01/04 01:39:37;;;;;;;36.45;14.90;;;;;;;2.38;100.00;100163.20;2188891;81;21044;-59
2023/01/04 01:42:38;;;;;;;32.23;13.62;;;;;;;2.30;100.00;100156.79;2188757;81;21012;-58
2023/01/04 01:45:40;;;;;;;34.27;15.18;;;;;;;2.18;100.00;100161.58;2189003;81;21472;-58
2023/01/04 01:48:41;;;;;;;36.55;13.20;;;;;;;2.19;100.00;100154.25;2188873;81;21023;-59
2023/01/04 01:51:42;;;;;;;32.25;13.05;;;;;;;2.33;100.00;100152.88;2188752;81;20983;-58
2023/01/04 01:54:44;;;;;;;38.65;15.72;;;;;;;2.38;100.00;100162.77;2188918;81;20995;-58
2023/01/04 01:57:45;;;;;;;39.23;15.55;;;;;;;2.46;100.00;100157.55;2188728;81;20945;-58
2023/01/04 02:00:47;;;;;;;37.73;14.98;;;;;;;2.52;100.00;100152.77;2189005;81;21762;-58
2023/01/04 02:03:48;;;;;;;35.95;15.08;;;;;;;2.63;100.00;100160.03;2188734;81;21024;-58
2023/01/04 02:06:49;;;;;;;31.65;13.18;;;;;;;2.64;100.00;100152.66;2188489;81;21596;-59
2023/01/04 02:09:51;;;;;;;39.08;15.43;;;;;;;2.63;100.00;100148.79;2188953;81;20972;-58
2023/01/04 02:12:52;;;;;;;42.50;17.02;;;;;;;2.58;100.00;100143.20;2188701;81;21016;-58
2023/01/04 02:15:54;;;;;;;37.95;16.32;;;;;;;2.58;100.00;100139.31;2188860;81;21008;-58
2023/01/04 02:18:55;;;;;;;36.58;14.80;;;;;;;2.72;100.00;100149.59;2188666;81;20980;-58
2023/01/04 02:21:57;;;;;;;40.12;17.30;;;;;;;2.66;100.00;100154.83;2188931;81;21480;-58
2023/01/04 02:24:58;;;;;;;42.27;18.45;;;;;;;2.60;100.00;100150.96;2188655;81;20972;-58
2023/01/04 02:27:59;;;;;;;41.77;17.85;;;;;;;2.46;100.00;100141.13;2188917;81;22141;-58
2023/01/04 02:31:01;;;;;;;44.33;17.62;;;;;;;2.47;100.00;100136.39;2188825;81;21036;-58
2023/01/04 02:34:03;;;;;;;42.93;17.62;;;;;;;2.47;100.00;100135.09;2188604;81;21543;-58
2023/01/04 02:37:04;;;;;;;38.33;16.77;;;;;;;2.42;100.00;100128.20;2188809;81;21029;-58
2023/01/04 02:40:05;;;;;;;34.58;14.95;;;;;;;2.20;100.00;100123.62;2188689;81;20981;-58
2023/01/04 02:46:10;;;;;;;43.92;19.40;;;;;;;1.92;100.00;100110.41;2171984;81;20937;-58
2023/01/04 02:52:15;;;;;;;38.40;15.65;;;;;;;1.95;100.00;100110.38;2171934;81;21511;-58
2023/01/04 02:55:17;;;;;;;38.90;16.12;;;;;;;1.89;100.00;100110.83;2188754;81;21016;-58
2023/01/04 02:58:18;;;;;;;39.20;15.23;;;;;;;1.80;100.00;100108.30;2188790;81;21499;-58
2023/01/04 03:07:26;;;;;;;58.45;22.15;;;;;;;1.90;100.00;100103.95;2171941;81;20977;-58
2023/01/04 03:10:28;;;;;;;49.30;19.73;;;;;;;1.79;100.00;100091.05;2188782;81;21554;-58
2023/01/04 03:13:29;;;;;;;39.55;15.60;;;;;;;1.68;100.00;100087.23;2188429;81;21080;-58
2023/01/04 03:16:31;;;;;;;36.80;14.87;;;;;;;1.68;100.00;100088.53;2188259;81;21008;-59
2023/01/04 03:50:05;;;;;;;36.48;14.60;;;;;;;0.58;100.00;100050.47;2171946;81;20969;-58
2023/01/04 03:53:07;;;;;;;39.13;13.90;;;;;;;0.57;100.00;100050.47;2188782;81;21007;-58
2023/01/04 03:56:08;;;;;;;32.10;12.50;;;;;;;0.47;100.00;100049.16;2188665;81;21040;-58
2023/01/04 03:59:09;;;;;;;34.38;13.15;;;;;;;0.57;100.00;100048.73;2188770;81;20983;-58
2023/01/04 04:02:12;;;;;;;34.43;12.50;;;;;;;0.58;100.00;100044.45;2188960;81;20957;-59
2023/01/04 04:14:24;;;;;;;32.23;12.07;;;;;;;0.42;100.00;100032.84;2170483;81;20993;-58
2023/01/04 04:17:25;;;;;;;34.67;12.33;;;;;;;0.33;100.00;100034.11;2172517;81;20986;-58
2023/01/04 04:20:27;;;;;;;38.75;13.48;;;;;;;0.31;100.00;100035.84;2172266;81;21049;-58
2023/01/04 04:23:28;;;;;;;31.73;12.18;;;;;;;0.28;100.00;100028.95;2172106;81;21591;-59
2023/01/04 04:26:30;;;;;;;35.03;14.58;;;;;;;0.12;100.00;100020.79;2172337;81;21029;-58
2023/01/04 04:29:31;;;;;;;35.85;14.00;;;;;;;0.05;100.00;100023.78;2172258;81;21088;-58
2023/01/04 04:32:32;;;;;;;35.68;13.13;;;;;;;0.05;100.00;100021.64;2172509;81;20976;-59
2023/01/04 04:35:34;;;;;;;34.10;13.78;;;;;;;0.10;100.00;100023.37;2172217;81;21100;-58
2023/01/04 04:38:35;;;;;;;34.53;13.15;;;;;;;0.10;100.00;100014.75;2172516;81;21505;-58
2023/01/04 04:41:37;;;;;;;35.78;14.63;;;;;;;0.15;100.00;100011.31;2172256;81;21017;-58
2023/01/04 04:44:38;;;;;;;35.58;14.18;;;;;;;0.21;100.00;100010.90;2172489;81;21547;-58
2023/01/04 04:47:40;;;;;;;34.83;14.17;;;;;;;0.25;100.00;100012.19;2171910;81;21024;-58
2023/01/04 04:50:41;;;;;;;34.50;13.53;;;;;;;0.26;100.00;100012.63;2172215;82;21028;-58
2023/01/04 04:53:43;;;;;;;34.92;13.00;;;;;;;0.28;100.00;100002.30;2172107;82;21038;-58
2023/01/04 04:56:44;;;;;;;34.18;14.00;;;;;;;0.24;100.00;99998.84;2171945;81;21065;-58
2023/01/04 04:59:45;;;;;;;36.42;14.13;;;;;;;0.18;100.00;100001.88;2172016;81;21655;-58
2023/01/04 05:02:47;;;;;;;32.58;13.08;;;;;;;0.18;100.00;100005.74;2172011;81;21076;-58
2023/01/04 05:05:48;;;;;;;35.63;13.28;;;;;;;0.07;100.00;100004.02;2171941;81;21527;-58
2023/01/04 05:08:50;;;;;;;35.17;13.45;;;;;;;0.03;100.00;99992.38;2172097;81;21056;-58
2023/01/04 05:14:54;;;;;;;38.63;16.07;;;;;;;-0.02;100.00;99988.52;2164665;81;21846;-58
2023/01/04 05:17:56;;;;;;;38.42;16.27;;;;;;;-0.13;100.00;99987.64;2188741;81;21032;-58
2023/01/04 05:20:57;;;;;;;52.38;23.73;;;;;;;-0.15;100.00;99983.78;2189001;81;21007;-58
2023/01/04 05:23:59;;;;;;;43.90;19.25;;;;;;;-0.18;100.00;99978.18;2189240;81;21024;-58
2023/01/04 05:27:00;;;;;;;44.45;17.60;;;;;;;-0.19;100.00;99976.48;2188660;81;21088;-58
2023/01/04 05:33:05;;;;;;;39.80;14.98;;;;;;;-0.30;100.00;99982.45;2172465;81;21486;-58
2023/01/04 05:36:07;;;;;;;40.83;15.10;;;;;;;-0.13;100.00;99975.63;2188974;81;20977;-58
2023/01/04 05:39:08;;;;;;;39.37;15.50;;;;;;;-0.08;100.00;99977.77;2188922;81;21460;-58
2023/01/04 05:45:13;;;;;;;42.88;18.92;;;;;;;-0.27;100.00;99979.91;2171952;81;21040;-57
2023/01/04 05:48:14;;;;;;;49.70;21.48;;;;;;;-0.39;100.00;99976.86;2189149;81;21475;-58
2023/01/04 05:51:16;;;;;;;43.28;19.23;;;;;;;-0.40;100.00;99972.14;2188984;81;20995;-58
2023/01/04 05:54:17;;;;;;;39.65;17.15;;;;;;;-0.41;100.00;99970.41;2188642;81;21000;-58
2023/01/04 05:57:19;;;;;;;42.03;16.15;;;;;;;-0.48;100.00;99967.83;2188838;81;20964;-58
2023/01/04 06:00:21;;;;;;;45.43;17.90;;;;;;;-0.56;100.00;99973.83;2188750;81;21444;-58
2023/01/04 06:03:23;;;;;;;39.95;15.15;;;;;;;-0.62;100.00;99968.63;2188976;81;20976;-58
2023/01/04 06:06:24;;;;;;;40.98;16.97;;;;;;;-0.50;100.00;99965.25;2188702;81;20973;-58
2023/01/04 06:09:26;;;;;;;38.38;16.27;;;;;;;-0.29;100.00;99964.41;2188836;81;21011;-58
2023/01/04 06:12:28;;;;;;;;;;;;;;;-0.42;100.00;99962.23;2191520;81;21547;-58
2023/01/04 06:15:30;;;;;;;43.30;17.35;;;;;;;-0.47;100.00;99961.39;2183577;81;20188;-58
2023/01/04 06:18:31;;;;;;;44.00;18.60;;;;;;;-0.51;100.00;99953.66;2172352;82;21544;-58
2023/01/04 06:21:32;;;;;;;44.18;19.40;;;;;;;-0.49;100.00;99957.08;2172154;81;21053;-58
2023/01/04 06:24:34;;;;;;;51.30;21.07;;;;;;;-0.51;100.00;99957.08;2172048;82;21124;-58
2023/01/04 06:27:35;;;;;;;48.05;21.07;;;;;;;-0.42;100.00;99948.50;2172503;81;20980;-58
2023/01/04 06:30:37;;;;;;;45.78;21.02;;;;;;;-0.45;100.00;99949.34;2172135;81;21048;-58
2023/01/04 06:33:38;;;;;;;46.50;19.82;;;;;;;-0.46;100.00;99950.23;2172374;81;21524;-58
2023/01/04 06:36:40;;;;;;;49.27;20.10;;;;;;;-0.47;100.00;99953.66;2172074;81;21061;-58
2023/01/04 06:39:41;;;;;;;51.40;20.48;;;;;;;-0.57;100.00;99945.48;2172033;81;21595;-58
2023/01/04 06:42:43;;;;;;;44.67;19.67;;;;;;;-0.55;100.00;99944.62;2172258;81;20976;-59
2023/01/04 06:45:45;;;;;;;43.25;18.02;;;;;;;-0.51;100.00;99940.33;2172257;81;21516;-58
2023/01/04 06:48:46;;;;;;;43.55;19.10;;;;;;;-0.49;100.00;99936.02;2172131;81;21077;-58
2023/01/04 06:51:48;;;;;;;45.15;18.52;;;;;;;-0.47;100.00;99938.19;2172266;81;21093;-58
2023/01/04 06:54:49;;;;;;;50.85;20.55;;;;;;;-0.41;100.00;99918.00;2172160;81;21004;-58
2023/01/04 06:57:51;;;;;;;53.43;19.77;;;;;;;-0.40;100.00;99919.30;2172335;82;21076;-58
2023/01/04 07:00:53;;;;;;;51.68;21.27;;;;;;;-0.38;100.00;99918.85;2172316;82;21049;-58
2023/01/04 07:03:54;;;;;;;47.33;19.80;;;;;;;-0.41;100.00;99918.00;2172115;81;21044;-58
2023/01/04 07:06:56;;;;;;;51.35;20.62;;;;;;;-0.38;100.00;99916.27;2172076;81;21092;-59
2023/01/04 07:09:58;;;;;;;47.45;21.48;;;;;;;-0.30;100.00;99918.88;2172236;81;21072;-59
2023/01/04 07:13:00;;;;;;;52.85;20.57;;;;;;;-0.22;100.00;99915.84;2172013;81;21108;-58
2023/01/04 07:16:01;;;;;;;51.92;20.52;;;;;;;-0.20;100.00;99912.02;2177795;81;21073;-59
2023/01/04 07:19:03;;;;;;;44.50;19.67;;;;;;;-0.19;100.00;99909.84;2189138;81;20980;-58
2023/01/04 07:22:04;;;;;;;54.45;21.48;;;;;;;-0.19;100.00;99905.56;2188742;81;20988;-58
2023/01/04 07:25:06;;;;;;;47.05;20.08;;;;;;;-0.15;100.00;99911.56;2188869;81;20937;-58
2023/01/04 07:28:07;;;;;;;56.28;20.77;;;;;;;-0.10;100.00;99902.53;2188667;81;21044;-58
2023/01/04 07:31:09;;;;;;;50.17;19.17;;;;;;;-0.01;100.00;99905.12;2188662;81;21455;-58
2023/01/04 07:34:10;;;;;;;48.25;20.37;;;;;;;0.02;100.00;99904.27;2188589;81;21011;-58
2023/01/04 07:37:14;;;;;;;57.88;22.82;;;;;;;0.06;100.00;99900.80;2188731;81;21003;-58
2023/01/04 07:40:15;;;;;;;59.60;27.35;;;;;;;0.20;100.00;99905.95;2188746;81;21004;-58
2023/01/04 07:43:17;;;;;;;61.63;26.37;;;;;;;0.32;100.00;99912.39;2189093;81;21059;-58
2023/01/04 07:46:20;;;;;;;59.75;25.85;;;;;;;0.46;100.00;99908.47;2188632;81;20993;-58
2023/01/04 07:49:22;;;;;;;59.58;27.95;;;;;;;0.50;100.00;99907.19;2188747;81;20988;-58
2023/01/04 07:52:24;;;;;;;57.67;24.70;;;;;;;0.59;100.00;99913.17;2188681;81;21598;-58
2023/01/04 07:55:25;;;;;;;95.92;40.25;;;;;;;0.75;100.00;99904.94;2188709;81;20992;-58
2023/01/04 07:58:27;;;;;;;123.97;47.38;;;;;;;0.81;100.00;99904.49;2188628;81;21031;-58
2023/01/04 08:01:28;;;;;;;107.07;45.20;;;;;;;0.91;100.00;99911.78;2188854;81;21471;-58
2023/01/04 08:04:30;;;;;;;75.83;32.83;;;;;;;1.02;100.00;99910.42;2188494;81;21032;-58
2023/01/04 08:07:31;;;;;;;63.73;29.05;;;;;;;1.11;100.00;99911.69;2188599;81;21539;-58
2023/01/04 08:10:32;;;;;;;72.92;33.18;;;;;;;1.33;100.00;99906.40;2188717;81;21008;-58
2023/01/04 08:13:34;;;;;;;78.50;39.65;;;;;;;1.52;100.00;99896.38;2188597;81;21027;-59
2023/01/04 08:16:35;;;;;;;79.62;50.17;;;;;;;1.81;100.00;99895.30;2180951;81;21000;-58
2023/01/04 08:19:37;;;;;;;51.80;27.77;;;;;;;1.96;100.00;99883.94;2172026;82;21045;-58
2023/01/04 08:22:38;;;;;;;57.62;26.27;;;;;;;2.14;100.00;99875.16;2172290;81;21583;-58
2023/01/04 08:25:39;;;;;;;61.58;27.45;;;;;;;2.31;100.00;99878.84;2171987;82;21033;-58
2023/01/04 08:28:41;;;;;;;62.45;29.48;;;;;;;2.42;100.00;99886.52;2172152;81;21056;-58
2023/01/04 08:31:42;;;;;;;67.35;29.75;;;;;;;2.63;100.00;99881.55;2171975;81;21123;-58
2023/01/04 08:34:44;;;;;;;61.58;28.92;;;;;;;2.87;100.00;99875.62;2172277;82;21071;-58
2023/01/04 08:37:46;;;;;;;57.05;27.93;;;;;;;2.97;100.00;99872.03;2172149;81;21037;-58
2023/01/04 08:40:47;;;;;;;58.07;28.47;;;;;;;3.12;100.00;99870.55;2172191;81;21045;-58
2023/01/04 08:43:49;;;;;;;56.80;27.42;;;;;;;3.38;100.00;99858.94;2172032;81;21053;-58
2023/01/04 08:46:50;;;;;;;64.35;29.48;;;;;;;3.56;100.00;99851.75;2172169;81;21068;-58
2023/01/04 08:49:51;;;;;;;62.65;30.30;;;;;;;3.76;100.00;99852.27;2172239;81;21033;-58
2023/01/04 08:52:53;;;;;;;69.65;30.72;;;;;;;3.99;100.00;99855.80;2172458;81;21516;-58
2023/01/04 08:55:54;;;;;;;69.67;33.05;;;;;;;4.21;100.00;99853.23;2172126;81;21044;-58
2023/01/04 08:58:56;;;;;;;65.87;29.97;;;;;;;4.40;100.00;99852.47;2172332;82;21124;-58
2023/01/04 09:01:57;;;;;;;59.48;28.80;;;;;;;4.53;100.00;99837.03;2172319;81;21065;-58
2023/01/04 09:05:01;;;;;;;59.70;28.25;;;;;;;4.63;100.00;99842.45;2172178;81;21072;-58
2023/01/04 09:08:02;;;;;;;57.08;28.07;;;;;;;4.81;100.00;99839.93;2161826;82;20989;-58
2023/01/04 09:11:04;;;;;;;58.02;28.55;;;;;;;4.92;100.00;99833.19;2172460;81;21001;-58
2023/01/04 09:17:09;;;;;;;58.17;28.38;;;;;;;5.28;100.00;99822.84;2169013;81;21538;-58
2023/01/04 09:20:11;;;;;;;56.55;25.62;;;;;;;5.45;100.00;99810.73;2189025;81;21049;-58
2023/01/04 09:23:12;;;;;;;56.25;26.00;;;;;;;5.68;100.00;99806.72;2189012;81;21004;-59
2023/01/04 09:26:14;;;;;;;55.43;26.37;;;;;;;5.75;100.00;99799.16;2188531;81;21036;-58
2023/01/04 09:29:16;;;;;;;56.07;24.97;;;;;;;5.96;100.00;99789.06;2189139;81;21486;-58
2023/01/04 09:32:18;;;;;;;49.50;24.12;;;;;;;6.00;100.00;99779.01;2189160;81;21004;-58
2023/01/04 09:35:19;;;;;;;52.00;24.17;;;;;;;6.11;100.00;99769.16;2188749;81;21024;-58
2023/01/04 09:38:21;;;;;;;51.40;23.38;;;;;;;6.19;100.00;99763.72;2189015;81;21440;-58
2023/01/04 09:41:22;;;;;;;51.27;24.07;;;;;;;6.27;100.00;99759.16;2189091;81;21052;-58
2023/01/04 09:44:24;;;;;;;46.75;19.70;;;;;;;6.35;100.00;99753.72;2189192;81;21491;-58
2023/01/04 09:47:25;;;;;;;47.25;20.05;;;;;;;6.55;100.00;99734.89;2189017;81;20973;-59
2023/01/04 09:50:27;;;;;;;43.58;19.73;;;;;;;6.65;100.00;99724.61;2188900;81;20988;-58
2023/01/04 09:53:28;;;;;;;43.45;19.82;;;;;;;6.71;100.00;99715.29;2188741;81;21079;-59
2023/01/04 09:56:30;;;;;;;48.55;22.25;;;;;;;6.73;100.00;99710.87;2188890;81;21016;-58
2023/01/04 09:59:31;;;;;;;44.00;20.80;;;;;;;6.82;100.00;99704.51;2189287;81;21464;-58
2023/01/04 10:02:33;;;;;;;42.33;19.73;;;;;;;6.93;100.00;99691.98;2188442;81;21100;-58
2023/01/04 10:05:35;;;;;;;40.50;19.87;;;;;;;7.19;100.00;99656.82;2188901;81;21079;-59
2023/01/04 10:08:37;;;;;;;43.28;18.12;;;;;;;7.19;100.00;99656.82;2188848;81;21337;-58
2023/01/04 10:11:38;;;;;;;44.30;18.97;;;;;;;7.23;100.00;99657.13;2188962;81;21594;-59
2023/01/04 10:14:40;;;;;;;36.85;17.02;;;;;;;7.29;100.00;99648.61;2188914;81;20972;-58
2023/01/04 10:17:41;;;;;;;45.03;16.35;;;;;;;7.42;100.00;99645.59;2177699;81;21045;-58
2023/01/04 10:20:43;;;;;;;34.90;16.10;;;;;;;7.45;100.00;99633.73;2172254;81;21111;-58
2023/01/04 10:23:44;;;;;;;37.93;16.42;;;;;;;7.50;100.00;99637.05;2172145;81;21033;-58
2023/01/04 10:26:46;;;;;;;36.70;16.42;;;;;;;7.67;100.00;99642.10;2172346;82;21044;-58
2023/01/04 10:29:47;;;;;;;37.35;15.93;;;;;;;7.77;100.00;99642.16;2172119;81;21112;-59
2023/01/04 10:32:49;;;;;;;33.92;13.98;;;;;;;7.83;100.00;99635.43;2172109;81;21556;-58
2023/01/04 10:35:50;;;;;;;34.20;14.73;;;;;;;7.87;100.00;99625.23;2171919;81;21046;-58
2023/01/04 10:38:52;;;;;;;32.48;14.45;;;;;;;7.94;100.00;99620.65;2172125;81;21212;-58
2023/01/04 10:41:53;;;;;;;34.13;14.00;;;;;;;8.03;100.00;99605.95;2172257;81;20976;-58
2023/01/04 10:44:55;;;;;;;31.12;12.00;;;;;;;8.13;100.00;99592.05;2172113;81;21045;-58
2023/01/04 10:47:56;;;;;;;32.63;13.20;;;;;;;8.20;100.00;99584.38;2172149;81;21075;-58
2023/01/04 10:50:58;;;;;;;30.90;13.10;;;;;;;8.38;100.00;99573.66;2172129;81;21036;-59
2023/01/04 10:53:59;;;;;;;29.07;11.33;;;;;;;8.46;100.00;99558.55;2172100;81;21607;-58
2023/01/04 10:57:01;;;;;;;30.60;10.70;;;;;;;8.59;100.00;99552.37;2172420;81;21021;-59
2023/01/04 11:00:03;;;;;;;27.02;10.35;;;;;;;8.56;100.00;99538.55;2172486;81;21528;-58
2023/01/04 11:03:04;;;;;;;26.87;9.70;;;;;;;8.51;100.00;99544.45;2172112;81;21061;-58
2023/01/04 11:06:07;;;;;;;27.30;9.93;;;;;;;8.36;100.00;99506.66;2172420;81;21583;-58
2023/01/04 11:09:09;;;;;;;27.77;10.75;;;;;;;8.30;100.00;99516.91;2172050;82;21017;-58
2023/01/04 11:12:10;;;;;;;32.08;12.03;;;;;;;8.29;100.00;99518.68;2172333;81;21531;-58
2023/01/04 11:15:12;;;;;;;27.20;10.30;;;;;;;8.35;100.00;99519.33;2172037;81;21076;-58
2023/01/04 11:18:13;;;;;;;29.90;11.45;;;;;;;8.32;100.00;99514.63;2184689;81;21107;-58
2023/01/04 11:21:15;;;;;;;30.90;11.75;;;;;;;8.19;100.00;99512.13;2188906;81;20952;-58
2023/01/04 11:24:16;;;;;;;29.70;11.05;;;;;;;8.09;100.00;99514.72;2188635;81;21004;-58
2023/01/04 11:27:18;;;;;;;28.35;10.75;;;;;;;8.13;100.00;99497.98;2189164;81;21459;-58
2023/01/04 11:30:19;;;;;;;29.35;11.43;;;;;;;8.25;100.00;99492.73;2188767;81;20941;-58
2023/01/04 11:33:21;;;;;;;31.62;11.18;;;;;;;8.36;100.00;99478.77;2188986;81;21044;-58
2023/01/04 11:36:22;;;;;;;28.87;11.12;;;;;;;8.56;100.00;99488.88;2188374;81;20972;-58
2023/01/04 11:39:24;;;;;;;30.85;11.53;;;;;;;8.59;100.00;99467.38;2188648;81;21016;-59
2023/01/04 11:42:25;;;;;;;35.28;13.53;;;;;;;8.74;100.00;99455.87;2188760;81;21570;-58
2023/01/04 11:45:27;;;;;;;34.40;12.50;;;;;;;8.76;100.00;99440.47;2188837;81;21008;-58
2023/01/04 11:48:28;;;;;;;34.58;12.68;;;;;;;8.65;100.00;99451.89;2188615;81;21547;-58
2023/01/04 11:51:30;;;;;;;30.55;10.65;;;;;;;8.69;100.00;99439.05;2188757;81;21004;-58
2023/01/04 11:54:32;;;;;;;29.30;11.30;;;;;;;8.65;100.00;99437.50;2188778;81;21004;-58
2023/01/04 11:57:34;;;;;;;32.23;11.30;;;;;;;8.63;100.00;99437.57;2188852;81;21000;-58
2023/01/04 12:00:35;;;;;;;27.82;10.45;;;;;;;8.56;100.00;99428.73;2188886;81;21060;-58
2023/01/04 12:03:37;;;;;;;30.68;10.45;;;;;;;8.49;100.00;99428.13;2188752;81;20987;-58
2023/01/04 12:06:39;;;;;;;28.40;10.23;;;;;;;8.40;100.00;99433.27;2188733;81;21012;-58
2023/01/04 12:09:40;;;;;;;31.30;12.87;;;;;;;8.33;100.00;99417.45;2188726;81;21139;-58
2023/01/04 12:12:42;;;;;;;27.65;9.33;;;;;;;8.26;100.00;99421.23;2188614;81;21004;-58
2023/01/04 12:15:43;;;;;;;30.60;10.50;;;;;;;8.17;100.00;99396.81;2188732;81;21514;-58
2023/01/04 12:18:45;;;;;;;28.38;9.48;;;;;;;8.14;100.00;99403.84;2188307;81;21088;-58
2023/01/04 12:21:46;;;;;;;31.00;9.28;;;;;;;8.03;100.00;99393.45;2188831;81;21559;-58
2023/01/04 12:24:48;;;;;;;29.23;10.32;;;;;;;7.94;100.00;99368.56;2188698;81;20984;-58
2023/01/04 12:27:49;;;;;;;30.45;11.00;;;;;;;7.89;100.00;99371.84;2188607;81;21038;-58
2023/01/04 12:30:51;;;;;;;30.40;10.13;;;;;;;7.87;100.00;99361.90;2188933;81;20945;-58
2023/01/04 12:33:54;;;;;;;30.40;9.55;;;;;;;7.83;100.00;99361.63;2188574;81;21024;-59
2023/01/04 12:36:55;;;;;;;26.65;9.03;;;;;;;7.77;100.00;99344.45;2188285;81;21131;-59
2023/01/04 12:39:57;;;;;;;27.80;8.83;;;;;;;7.70;100.00;99324.72;2189218;81;20984;-59
2023/01/04 12:42:58;;;;;;;31.73;10.53;;;;;;;7.68;100.00;99308.28;2188716;81;20984;-58
2023/01/04 12:49:02;;;;;;;30.23;9.98;;;;;;;7.66;100.00;99303.56;2188573;81;21095;-59
2023/01/04 12:49:03;;;;;;;31.07;9.80;;;;;;;7.69;100.00;99301.69;2117863;83;21498;-58
2023/01/04 12:52:05;;;;;;;30.92;12.23;;;;;;;7.69;100.00;99288.63;2143790;83;21011;-58
2023/01/04 12:55:08;;;;;;;46.28;16.93;;;;;;;7.72;100.00;99265.00;2121424;84;21643;-58
2023/01/04 12:58:09;;;;;;;34.78;13.48;;;;;;;7.74;100.00;99275.38;2121175;84;20989;-58
2023/01/04 13:01:11;;;;;;;30.15;11.55;;;;;;;7.78;100.00;99280.41;2121422;84;21013;-58
2023/01/04 13:04:12;;;;;;;35.75;12.33;;;;;;;7.98;100.00;99266.48;2121090;84;21038;-58
2023/01/04 13:07:14;;;;;;;30.47;11.27;;;;;;;8.02;100.00;99262.47;2121471;84;21516;-58
2023/01/04 13:10:16;;;;;;;24.67;8.63;;;;;;;8.03;100.00;99253.25;2121254;84;21029;-58
2023/01/04 13:13:18;;;;;;;25.90;9.03;;;;;;;8.01;100.00;99239.39;2121428;84;21623;-58
2023/01/04 13:16:19;;;;;;;28.67;8.53;;;;;;;7.93;100.00;99237.13;2121121;84;20981;-58
2023/01/04 13:19:20;;;;;;;23.18;6.87;;;;;;;7.87;100.00;99232.15;2117296;84;21068;-58
2023/01/04 13:22:22;;;;;;;27.55;8.13;;;;;;;7.83;100.00;99217.98;2117646;84;21032;-58
2023/01/04 13:25:23;;;;;;;34.95;11.88;;;;;;;7.80;100.00;99217.22;2117402;84;21029;-58
2023/01/04 13:28:25;;;;;;;34.30;12.30;;;;;;;7.78;100.00;99212.50;2117783;84;21005;-59
2023/01/04 13:31:26;;;;;;;24.32;7.85;;;;;;;7.78;100.00;99199.91;2117316;84;21075;-58
2023/01/04 13:34:27;;;;;;;25.50;8.15;;;;;;;7.73;100.00;99188.81;2117717;84;21491;-58
2023/01/04 13:37:29;;;;;;;26.77;8.60;;;;;;;7.69;100.00;99185.97;2117216;84;20982;-58
2023/01/04 13:40:33;;;;;;;25.87;7.87;;;;;;;7.66;100.00;99189.98;2118141;84;21453;-58
2023/01/04 13:43:34;;;;;;;24.92;7.83;;;;;;;7.62;100.00;99164.48;2091207;84;21784;-58
2023/01/04 13:46:35;;;;;;;23.70;6.90;;;;;;;7.58;100.00;99168.14;2182212;82;21012;-58
2023/01/04 13:49:37;;;;;;;25.03;8.23;;;;;;;7.53;100.00;99160.52;2181731;82;21044;-58
2023/01/04 13:52:38;;;;;;;26.00;8.40;;;;;;;7.50;100.00;99167.18;2182210;82;20982;-58
2023/01/04 13:55:40;;;;;;;25.45;7.42;;;;;;;7.53;100.00;99164.87;2181787;82;21016;-58
2023/01/04 13:58:41;;;;;;;26.57;8.20;;;;;;;7.50;100.00;99151.52;2181819;82;21531;-58
2023/01/04 14:01:43;;;;;;;26.77;7.67;;;;;;;7.57;100.00;99152.95;2182082;82;20960;-58
2023/01/04 14:04:44;;;;;;;26.47;7.83;;;;;;;7.58;100.00;99144.64;2182203;82;21496;-58
2023/01/04 14:07:46;;;;;;;26.25;7.65;;;;;;;7.53;100.00;99135.72;2181593;82;21411;-59
2023/01/04 14:10:47;;;;;;;22.93;6.65;;;;;;;7.55;100.00;99127.35;2181979;82;20996;-58
2023/01/04 14:13:49;;;;;;;24.23;7.15;;;;;;;7.53;100.00;99117.45;2182331;81;21008;-58
2023/01/04 14:16:50;;;;;;;26.53;7.17;;;;;;;7.50;100.00;99124.11;2181820;82;20992;-59
2023/01/04 14:19:52;;;;;;;24.43;6.97;;;;;;;7.56;100.00;99119.08;2171937;82;20993;-58
2023/01/04 14:22:55;;;;;;;27.48;9.23;;;;;;;7.53;100.00;99108.31;2172397;82;21025;-58
2023/01/04 14:25:56;;;;;;;19.98;6.10;;;;;;;7.56;100.00;99102.95;2127623;83;21008;-58
2023/01/04 14:28:58;;;;;;;24.20;7.42;;;;;;;7.58;100.00;99095.88;2127300;84;21497;-58
2023/01/04 14:31:59;;;;;;;27.10;11.12;;;;;;;7.58;100.00;99093.74;2127287;83;21004;-58
2023/01/04 14:35:01;;;;;;;20.55;6.58;;;;;;;7.59;100.00;99077.17;2172104;81;21561;-58
2023/01/04 14:38:02;;;;;;;22.90;7.15;;;;;;;7.58;100.00;99078.08;2171740;81;20964;-58
2023/01/04 14:41:04;;;;;;;22.82;5.95;;;;;;;7.59;100.00;99074.56;2168851;82;21551;-58
2023/01/04 14:44:05;;;;;;;21.68;5.83;;;;;;;7.64;100.00;99071.27;2163805;82;20982;-58
2023/01/04 14:47:07;;;;;;;24.52;6.47;;;;;;;7.68;100.00;99073.30;2168304;81;20997;-58
2023/01/04 14:50:08;;;;;;;27.13;8.90;;;;;;;7.67;100.00;99075.08;2169823;82;21042;-58
2023/01/04 14:53:12;;;;;;;30.55;9.90;;;;;;;7.69;100.00;99069.31;2169891;82;21156;-58
2023/01/04 14:56:13;;;;;;;28.30;8.88;;;;;;;7.73;100.00;99052.59;2149165;82;21050;-58
2023/01/04 14:59:15;;;;;;;25.55;7.30;;;;;;;7.73;100.00;99041.28;2169756;82;20955;-58